sensor_id;sensor_type;location;lat;lon;timestamp;P1;durP1;ratioP1;P2;durP2;ratioP2
9948;SDS011;5013;51.840;8.276;2023-07-02T00:00:08;7.23;;;6.63;;
9948;SDS011;5013;51.840;8.276;2023-07-02T00:02:34;6.90;;;6.30;;
9948;SDS011;5013;51.840;8.276;2023-07-02T00:05:00;7.83;;;7.00;;
9948;SDS011;5013;51.840;8.276;2023-07-02T00:07:26;8.00;;;7.20;;
9948;SDS011;5013;51.840;8.276;2023-07-02T00:09:51;7.87;;;6.70;;
9948;SDS011;5013;51.840;8.276;2023-07-02T00:12:17;7.53;;;6.80;;
9948;SDS011;5013;51.840;8.276;2023-07-02T00:14:43;13.43;;;7.80;;
9948;SDS011;5013;51.840;8.276;2023-07-02T00:17:08;9.30;;;8.47;;
9948;SDS011;5013;51.840;8.276;2023-07-02T00:19:37;8.00;;;7.20;;
9948;SDS011;5013;51.840;8.276;2023-07-02T00:22:06;7.87;;;7.27;;
9948;SDS011;5013;51.840;8.276;2023-07-02T00:24:35;8.87;;;7.93;;
9948;SDS011;5013;51.840;8.276;2023-07-02T00:27:01;8.97;;;8.27;;
9948;SDS011;5013;51.840;8.276;2023-07-02T00:29:27;8.30;;;7.60;;
9948;SDS011;5013;51.840;8.276;2023-07-02T00:31:53;9.20;;;8.40;;
9948;SDS011;5013;51.840;8.276;2023-07-02T00:34:18;9.67;;;8.47;;
9948;SDS011;5013;51.840;8.276;2023-07-02T00:36:44;12.20;;;8.40;;
9948;SDS011;5013;51.840;8.276;2023-07-02T00:39:10;8.57;;;7.87;;
9948;SDS011;5013;51.840;8.276;2023-07-02T00:41:37;7.77;;;7.03;;
9948;SDS011;5013;51.840;8.276;2023-07-02T00:44:02;9.57;;;8.40;;
9948;SDS011;5013;51.840;8.276;2023-07-02T00:46:28;8.77;;;7.97;;
9948;SDS011;5013;51.840;8.276;2023-07-02T00:48:55;9.67;;;8.57;;
9948;SDS011;5013;51.840;8.276;2023-07-02T00:51:25;9.77;;;9.03;;
9948;SDS011;5013;51.840;8.276;2023-07-02T00:53:55;10.47;;;8.27;;
9948;SDS011;5013;51.840;8.276;2023-07-02T00:56:22;10.77;;;9.17;;
9948;SDS011;5013;51.840;8.276;2023-07-02T00:58:49;10.13;;;9.13;;
9948;SDS011;5013;51.840;8.276;2023-07-02T01:01:18;12.83;;;9.17;;
9948;SDS011;5013;51.840;8.276;2023-07-02T01:03:51;13.23;;;8.37;;
9948;SDS011;5013;51.840;8.276;2023-07-02T01:06:19;8.77;;;7.83;;
9948;SDS011;5013;51.840;8.276;2023-07-02T01:08:50;10.27;;;8.80;;
9948;SDS011;5013;51.840;8.276;2023-07-02T01:17:03;10.20;;;9.20;;
9948;SDS011;5013;51.840;8.276;2023-07-02T01:22:08;10.30;;;9.40;;
9948;SDS011;5013;51.840;8.276;2023-07-02T01:24:35;10.23;;;9.43;;
9948;SDS011;5013;51.840;8.276;2023-07-02T01:27:03;10.27;;;9.40;;
9948;SDS011;5013;51.840;8.276;2023-07-02T01:29:30;10.63;;;9.60;;
9948;SDS011;5013;51.840;8.276;2023-07-02T01:31:55;13.63;;;10.50;;
9948;SDS011;5013;51.840;8.276;2023-07-02T01:34:22;12.73;;;9.67;;
9948;SDS011;5013;51.840;8.276;2023-07-02T01:36:48;12.00;;;10.10;;
9948;SDS011;5013;51.840;8.276;2023-07-02T01:39:13;12.37;;;10.10;;
9948;SDS011;5013;51.840;8.276;2023-07-02T01:41:44;11.90;;;9.73;;
9948;SDS011;5013;51.840;8.276;2023-07-02T01:44:13;12.13;;;9.53;;
9948;SDS011;5013;51.840;8.276;2023-07-02T01:46:39;11.90;;;10.07;;
9948;SDS011;5013;51.840;8.276;2023-07-02T01:49:05;10.63;;;9.53;;
9948;SDS011;5013;51.840;8.276;2023-07-02T01:51:30;11.73;;;10.07;;
9948;SDS011;5013;51.840;8.276;2023-07-02T01:53:56;17.97;;;11.17;;
9948;SDS011;5013;51.840;8.276;2023-07-02T01:56:21;11.70;;;8.77;;
9948;SDS011;5013;51.840;8.276;2023-07-02T01:58:47;10.77;;;9.33;;
9948;SDS011;5013;51.840;8.276;2023-07-02T02:01:12;10.60;;;9.57;;
9948;SDS011;5013;51.840;8.276;2023-07-02T02:03:38;11.07;;;10.07;;
9948;SDS011;5013;51.840;8.276;2023-07-02T02:06:03;11.17;;;9.57;;
9948;SDS011;5013;51.840;8.276;2023-07-02T02:08:29;12.03;;;9.33;;
9948;SDS011;5013;51.840;8.276;2023-07-02T02:10:54;11.23;;;9.77;;
9948;SDS011;5013;51.840;8.276;2023-07-02T02:13:20;10.97;;;8.80;;
9948;SDS011;5013;51.840;8.276;2023-07-02T02:15:45;10.70;;;9.20;;
9948;SDS011;5013;51.840;8.276;2023-07-02T02:18:11;12.33;;;9.03;;
9948;SDS011;5013;51.840;8.276;2023-07-02T02:20:37;9.87;;;8.23;;
9948;SDS011;5013;51.840;8.276;2023-07-02T02:23:02;12.03;;;9.70;;
9948;SDS011;5013;51.840;8.276;2023-07-02T02:25:28;11.37;;;9.07;;
9948;SDS011;5013;51.840;8.276;2023-07-02T02:27:53;11.10;;;8.70;;
9948;SDS011;5013;51.840;8.276;2023-07-02T02:30:19;10.07;;;9.17;;
9948;SDS011;5013;51.840;8.276;2023-07-02T02:32:44;10.63;;;9.53;;
9948;SDS011;5013;51.840;8.276;2023-07-02T02:35:10;11.27;;;8.97;;
9948;SDS011;5013;51.840;8.276;2023-07-02T02:37:36;11.33;;;10.03;;
9948;SDS011;5013;51.840;8.276;2023-07-02T02:40:04;14.30;;;9.10;;
9948;SDS011;5013;51.840;8.276;2023-07-02T02:42:31;11.40;;;10.10;;
9948;SDS011;5013;51.840;8.276;2023-07-02T02:44:57;14.87;;;9.40;;
9948;SDS011;5013;51.840;8.276;2023-07-02T02:47:22;10.40;;;9.30;;
9948;SDS011;5013;51.840;8.276;2023-07-02T02:49:48;21.33;;;10.37;;
9948;SDS011;5013;51.840;8.276;2023-07-02T02:52:14;13.00;;;10.00;;
9948;SDS011;5013;51.840;8.276;2023-07-02T02:54:40;10.67;;;9.57;;
9948;SDS011;5013;51.840;8.276;2023-07-02T02:57:06;16.93;;;9.87;;
9948;SDS011;5013;51.840;8.276;2023-07-02T02:59:31;11.03;;;8.70;;
9948;SDS011;5013;51.840;8.276;2023-07-02T03:01:57;16.07;;;9.27;;
9948;SDS011;5013;51.840;8.276;2023-07-02T03:04:22;17.63;;;9.53;;
9948;SDS011;5013;51.840;8.276;2023-07-02T03:06:51;10.90;;;8.70;;
9948;SDS011;5013;51.840;8.276;2023-07-02T03:09:18;11.20;;;8.63;;
9948;SDS011;5013;51.840;8.276;2023-07-02T03:11:44;15.30;;;8.90;;
9948;SDS011;5013;51.840;8.276;2023-07-02T03:14:10;11.60;;;8.50;;
9948;SDS011;5013;51.840;8.276;2023-07-02T03:16:36;15.27;;;9.57;;
9948;SDS011;5013;51.840;8.276;2023-07-02T03:19:02;15.90;;;9.50;;
9948;SDS011;5013;51.840;8.276;2023-07-02T03:21:28;13.30;;;9.60;;
9948;SDS011;5013;51.840;8.276;2023-07-02T03:23:55;16.10;;;9.60;;
9948;SDS011;5013;51.840;8.276;2023-07-02T03:26:20;14.03;;;9.43;;
9948;SDS011;5013;51.840;8.276;2023-07-02T03:28:47;15.17;;;8.80;;
9948;SDS011;5013;51.840;8.276;2023-07-02T03:31:13;13.50;;;9.23;;
9948;SDS011;5013;51.840;8.276;2023-07-02T03:33:38;16.77;;;8.80;;
9948;SDS011;5013;51.840;8.276;2023-07-02T03:36:04;14.03;;;9.20;;
9948;SDS011;5013;51.840;8.276;2023-07-02T03:38:29;10.47;;;8.00;;
9948;SDS011;5013;51.840;8.276;2023-07-02T03:40:55;11.30;;;8.43;;
9948;SDS011;5013;51.840;8.276;2023-07-02T03:43:20;16.97;;;8.70;;
9948;SDS011;5013;51.840;8.276;2023-07-02T03:45:46;14.83;;;9.00;;
9948;SDS011;5013;51.840;8.276;2023-07-02T03:48:12;14.47;;;9.27;;
9948;SDS011;5013;51.840;8.276;2023-07-02T03:50:37;12.40;;;8.40;;
9948;SDS011;5013;51.840;8.276;2023-07-02T03:53:03;16.87;;;10.00;;
9948;SDS011;5013;51.840;8.276;2023-07-02T03:55:28;12.80;;;8.37;;
9948;SDS011;5013;51.840;8.276;2023-07-02T03:57:54;17.10;;;10.30;;
9948;SDS011;5013;51.840;8.276;2023-07-02T04:00:19;19.00;;;10.17;;
9948;SDS011;5013;51.840;8.276;2023-07-02T04:02:45;16.33;;;9.37;;
9948;SDS011;5013;51.840;8.276;2023-07-02T04:05:11;12.80;;;9.33;;
9948;SDS011;5013;51.840;8.276;2023-07-02T04:07:37;20.57;;;10.00;;
9948;SDS011;5013;51.840;8.276;2023-07-02T04:10:02;15.50;;;9.40;;
9948;SDS011;5013;51.840;8.276;2023-07-02T04:12:28;17.80;;;9.80;;
9948;SDS011;5013;51.840;8.276;2023-07-02T04:14:53;16.33;;;10.43;;
9948;SDS011;5013;51.840;8.276;2023-07-02T04:17:19;16.57;;;10.20;;
9948;SDS011;5013;51.840;8.276;2023-07-02T04:19:45;18.03;;;10.40;;
9948;SDS011;5013;51.840;8.276;2023-07-02T04:22:10;18.37;;;10.20;;
9948;SDS011;5013;51.840;8.276;2023-07-02T04:24:36;13.30;;;9.77;;
9948;SDS011;5013;51.840;8.276;2023-07-02T04:27:01;19.77;;;10.00;;
9948;SDS011;5013;51.840;8.276;2023-07-02T04:29:27;18.97;;;11.07;;
9948;SDS011;5013;51.840;8.276;2023-07-02T04:31:52;16.00;;;10.50;;
9948;SDS011;5013;51.840;8.276;2023-07-02T04:34:18;17.20;;;10.87;;
9948;SDS011;5013;51.840;8.276;2023-07-02T04:36:46;18.37;;;11.13;;
9948;SDS011;5013;51.840;8.276;2023-07-02T04:39:12;23.30;;;11.30;;
9948;SDS011;5013;51.840;8.276;2023-07-02T04:41:37;24.87;;;11.80;;
9948;SDS011;5013;51.840;8.276;2023-07-02T04:44:03;18.17;;;10.77;;
9948;SDS011;5013;51.840;8.276;2023-07-02T04:46:29;15.87;;;9.97;;
9948;SDS011;5013;51.840;8.276;2023-07-02T04:48:55;20.00;;;11.83;;
9948;SDS011;5013;51.840;8.276;2023-07-02T04:51:20;17.23;;;10.87;;
9948;SDS011;5013;51.840;8.276;2023-07-02T04:53:46;16.53;;;11.33;;
9948;SDS011;5013;51.840;8.276;2023-07-02T04:56:12;19.33;;;10.43;;
9948;SDS011;5013;51.840;8.276;2023-07-02T04:58:37;18.57;;;10.00;;
9948;SDS011;5013;51.840;8.276;2023-07-02T05:01:03;18.13;;;10.30;;
9948;SDS011;5013;51.840;8.276;2023-07-02T05:03:29;15.67;;;9.07;;
9948;SDS011;5013;51.840;8.276;2023-07-02T05:05:55;23.57;;;11.03;;
9948;SDS011;5013;51.840;8.276;2023-07-02T05:08:21;17.83;;;9.73;;
9948;SDS011;5013;51.840;8.276;2023-07-02T05:10:46;23.53;;;10.50;;
9948;SDS011;5013;51.840;8.276;2023-07-02T05:13:12;18.23;;;9.80;;
9948;SDS011;5013;51.840;8.276;2023-07-02T05:15:38;15.50;;;9.57;;
9948;SDS011;5013;51.840;8.276;2023-07-02T05:18:04;18.53;;;10.57;;
9948;SDS011;5013;51.840;8.276;2023-07-02T05:20:31;17.37;;;9.97;;
9948;SDS011;5013;51.840;8.276;2023-07-02T05:22:57;13.30;;;8.83;;
9948;SDS011;5013;51.840;8.276;2023-07-02T05:25:22;18.20;;;9.27;;
9948;SDS011;5013;51.840;8.276;2023-07-02T05:27:48;17.10;;;9.57;;
9948;SDS011;5013;51.840;8.276;2023-07-02T05:30:13;16.17;;;9.13;;
9948;SDS011;5013;51.840;8.276;2023-07-02T05:32:39;19.40;;;9.27;;
9948;SDS011;5013;51.840;8.276;2023-07-02T05:35:05;17.77;;;9.07;;
9948;SDS011;5013;51.840;8.276;2023-07-02T05:37:31;27.37;;;10.13;;
9948;SDS011;5013;51.840;8.276;2023-07-02T05:39:56;16.90;;;8.60;;
9948;SDS011;5013;51.840;8.276;2023-07-02T05:42:22;23.37;;;10.10;;
9948;SDS011;5013;51.840;8.276;2023-07-02T05:44:47;22.13;;;10.20;;
9948;SDS011;5013;51.840;8.276;2023-07-02T05:47:13;23.53;;;9.87;;
9948;SDS011;5013;51.840;8.276;2023-07-02T05:49:38;12.33;;;8.17;;
9948;SDS011;5013;51.840;8.276;2023-07-02T05:52:07;17.13;;;9.50;;
9948;SDS011;5013;51.840;8.276;2023-07-02T05:54:33;19.40;;;8.93;;
9948;SDS011;5013;51.840;8.276;2023-07-02T05:56:58;15.23;;;8.93;;
9948;SDS011;5013;51.840;8.276;2023-07-02T05:59:24;15.73;;;8.40;;
9948;SDS011;5013;51.840;8.276;2023-07-02T06:01:49;18.73;;;9.10;;
9948;SDS011;5013;51.840;8.276;2023-07-02T06:04:15;13.87;;;8.67;;
9948;SDS011;5013;51.840;8.276;2023-07-02T06:06:40;23.77;;;9.20;;
9948;SDS011;5013;51.840;8.276;2023-07-02T06:09:06;20.87;;;9.17;;
9948;SDS011;5013;51.840;8.276;2023-07-02T06:11:32;21.63;;;8.47;;
9948;SDS011;5013;51.840;8.276;2023-07-02T06:13:58;16.60;;;8.80;;
9948;SDS011;5013;51.840;8.276;2023-07-02T06:16:24;18.30;;;9.20;;
9948;SDS011;5013;51.840;8.276;2023-07-02T06:18:50;17.87;;;8.80;;
9948;SDS011;5013;51.840;8.276;2023-07-02T06:21:16;25.40;;;10.50;;
9948;SDS011;5013;51.840;8.276;2023-07-02T06:23:42;17.27;;;8.73;;
9948;SDS011;5013;51.840;8.276;2023-07-02T06:26:08;22.90;;;9.87;;
9948;SDS011;5013;51.840;8.276;2023-07-02T06:28:34;23.70;;;9.50;;
9948;SDS011;5013;51.840;8.276;2023-07-02T06:30:59;24.73;;;8.97;;
9948;SDS011;5013;51.840;8.276;2023-07-02T06:33:25;25.27;;;9.80;;
9948;SDS011;5013;51.840;8.276;2023-07-02T06:35:51;23.10;;;9.03;;
9948;SDS011;5013;51.840;8.276;2023-07-02T06:38:16;20.87;;;9.03;;
9948;SDS011;5013;51.840;8.276;2023-07-02T06:40:42;18.97;;;8.53;;
9948;SDS011;5013;51.840;8.276;2023-07-02T06:43:07;26.00;;;9.83;;
9948;SDS011;5013;51.840;8.276;2023-07-02T06:45:33;21.27;;;9.47;;
9948;SDS011;5013;51.840;8.276;2023-07-02T06:47:58;19.30;;;9.27;;
9948;SDS011;5013;51.840;8.276;2023-07-02T06:50:24;21.73;;;9.77;;
9948;SDS011;5013;51.840;8.276;2023-07-02T06:52:49;18.00;;;8.80;;
9948;SDS011;5013;51.840;8.276;2023-07-02T06:55:15;26.97;;;9.47;;
9948;SDS011;5013;51.840;8.276;2023-07-02T06:57:44;24.60;;;9.47;;
9948;SDS011;5013;51.840;8.276;2023-07-02T07:00:13;16.77;;;9.00;;
9948;SDS011;5013;51.840;8.276;2023-07-02T07:02:39;21.63;;;10.47;;
9948;SDS011;5013;51.840;8.276;2023-07-02T07:05:05;28.83;;;9.63;;
9948;SDS011;5013;51.840;8.276;2023-07-02T07:07:31;21.73;;;9.87;;
9948;SDS011;5013;51.840;8.276;2023-07-02T07:09:57;26.07;;;10.47;;
9948;SDS011;5013;51.840;8.276;2023-07-02T07:12:22;21.40;;;9.37;;
9948;SDS011;5013;51.840;8.276;2023-07-02T07:14:48;21.73;;;9.43;;
9948;SDS011;5013;51.840;8.276;2023-07-02T07:17:13;21.93;;;9.20;;
9948;SDS011;5013;51.840;8.276;2023-07-02T07:19:39;18.83;;;9.97;;
9948;SDS011;5013;51.840;8.276;2023-07-02T07:22:05;23.83;;;9.53;;
9948;SDS011;5013;51.840;8.276;2023-07-02T07:24:30;20.87;;;9.67;;
9948;SDS011;5013;51.840;8.276;2023-07-02T07:26:56;21.97;;;10.33;;
9948;SDS011;5013;51.840;8.276;2023-07-02T07:29:21;19.60;;;10.57;;
9948;SDS011;5013;51.840;8.276;2023-07-02T07:31:47;20.00;;;10.87;;
9948;SDS011;5013;51.840;8.276;2023-07-02T07:34:12;23.50;;;11.03;;
9948;SDS011;5013;51.840;8.276;2023-07-02T07:36:38;23.20;;;11.03;;
9948;SDS011;5013;51.840;8.276;2023-07-02T07:39:04;18.80;;;10.67;;
9948;SDS011;5013;51.840;8.276;2023-07-02T07:41:29;20.83;;;10.50;;
9948;SDS011;5013;51.840;8.276;2023-07-02T07:43:55;22.23;;;11.50;;
9948;SDS011;5013;51.840;8.276;2023-07-02T07:46:20;22.10;;;10.70;;
9948;SDS011;5013;51.840;8.276;2023-07-02T07:48:46;21.47;;;10.60;;
9948;SDS011;5013;51.840;8.276;2023-07-02T07:51:11;17.23;;;10.53;;
9948;SDS011;5013;51.840;8.276;2023-07-02T07:53:37;23.57;;;10.17;;
9948;SDS011;5013;51.840;8.276;2023-07-02T07:56:04;26.57;;;11.40;;
9948;SDS011;5013;51.840;8.276;2023-07-02T07:58:30;22.00;;;11.50;;
9948;SDS011;5013;51.840;8.276;2023-07-02T08:00:57;22.17;;;11.23;;
9948;SDS011;5013;51.840;8.276;2023-07-02T08:03:22;22.40;;;10.50;;
9948;SDS011;5013;51.840;8.276;2023-07-02T08:05:48;22.43;;;11.17;;
9948;SDS011;5013;51.840;8.276;2023-07-02T08:08:13;24.73;;;10.60;;
9948;SDS011;5013;51.840;8.276;2023-07-02T08:10:39;19.87;;;10.00;;
9948;SDS011;5013;51.840;8.276;2023-07-02T08:13:05;19.27;;;10.83;;
9948;SDS011;5013;51.840;8.276;2023-07-02T08:15:30;27.93;;;11.13;;
9948;SDS011;5013;51.840;8.276;2023-07-02T08:17:56;25.77;;;11.13;;
9948;SDS011;5013;51.840;8.276;2023-07-02T08:20:23;22.77;;;10.40;;
9948;SDS011;5013;51.840;8.276;2023-07-02T08:22:49;23.00;;;10.40;;
9948;SDS011;5013;51.840;8.276;2023-07-02T08:25:16;22.27;;;10.23;;
9948;SDS011;5013;51.840;8.276;2023-07-02T08:27:43;24.27;;;10.20;;
9948;SDS011;5013;51.840;8.276;2023-07-02T08:30:09;16.57;;;9.17;;
9948;SDS011;5013;51.840;8.276;2023-07-02T08:32:34;14.97;;;9.77;;
9948;SDS011;5013;51.840;8.276;2023-07-02T08:35:00;18.37;;;9.60;;
9948;SDS011;5013;51.840;8.276;2023-07-02T08:37:26;19.33;;;10.53;;
9948;SDS011;5013;51.840;8.276;2023-07-02T08:39:51;16.90;;;9.40;;
9948;SDS011;5013;51.840;8.276;2023-07-02T08:42:17;18.43;;;9.13;;
9948;SDS011;5013;51.840;8.276;2023-07-02T08:44:46;18.43;;;9.50;;
9948;SDS011;5013;51.840;8.276;2023-07-02T08:47:12;18.10;;;9.67;;
9948;SDS011;5013;51.840;8.276;2023-07-02T08:49:38;20.63;;;9.73;;
9948;SDS011;5013;51.840;8.276;2023-07-02T08:52:04;16.23;;;9.50;;
9948;SDS011;5013;51.840;8.276;2023-07-02T08:54:30;23.77;;;9.77;;
9948;SDS011;5013;51.840;8.276;2023-07-02T08:56:56;15.10;;;9.03;;
9948;SDS011;5013;51.840;8.276;2023-07-02T08:59:22;17.87;;;9.33;;
9948;SDS011;5013;51.840;8.276;2023-07-02T09:01:48;14.00;;;9.23;;
9948;SDS011;5013;51.840;8.276;2023-07-02T09:04:19;16.63;;;9.20;;
9948;SDS011;5013;51.840;8.276;2023-07-02T09:06:49;24.33;;;10.50;;
9948;SDS011;5013;51.840;8.276;2023-07-02T09:09:16;16.90;;;9.80;;
9948;SDS011;5013;51.840;8.276;2023-07-02T09:11:51;21.63;;;9.50;;
9948;SDS011;5013;51.840;8.276;2023-07-02T09:14:26;15.43;;;8.97;;
9948;SDS011;5013;51.840;8.276;2023-07-02T09:17:02;23.43;;;9.87;;
9948;SDS011;5013;51.840;8.276;2023-07-02T09:19:36;17.27;;;8.83;;
9948;SDS011;5013;51.840;8.276;2023-07-02T09:22:02;28.40;;;10.13;;
9948;SDS011;5013;51.840;8.276;2023-07-02T09:24:30;18.93;;;9.53;;
9948;SDS011;5013;51.840;8.276;2023-07-02T09:27:00;15.20;;;9.30;;
9948;SDS011;5013;51.840;8.276;2023-07-02T09:29:33;16.43;;;9.40;;
9948;SDS011;5013;51.840;8.276;2023-07-02T09:32:02;21.47;;;9.33;;
9948;SDS011;5013;51.840;8.276;2023-07-02T09:34:33;14.13;;;9.00;;
9948;SDS011;5013;51.840;8.276;2023-07-02T09:37:03;16.00;;;9.63;;
9948;SDS011;5013;51.840;8.276;2023-07-02T09:39:33;25.87;;;9.47;;
9948;SDS011;5013;51.840;8.276;2023-07-02T09:42:01;20.43;;;8.83;;
9948;SDS011;5013;51.840;8.276;2023-07-02T09:44:30;29.27;;;8.30;;
9948;SDS011;5013;51.840;8.276;2023-07-02T09:47:03;15.63;;;8.67;;
9948;SDS011;5013;51.840;8.276;2023-07-02T09:49:33;17.23;;;9.00;;
9948;SDS011;5013;51.840;8.276;2023-07-02T09:52:45;14.80;;;8.63;;
9948;SDS011;5013;51.840;8.276;2023-07-02T09:55:12;15.50;;;8.43;;
9948;SDS011;5013;51.840;8.276;2023-07-02T09:57:39;14.60;;;8.60;;
9948;SDS011;5013;51.840;8.276;2023-07-02T10:00:07;14.13;;;8.70;;
9948;SDS011;5013;51.840;8.276;2023-07-02T10:02:34;15.77;;;8.73;;
9948;SDS011;5013;51.840;8.276;2023-07-02T10:05:01;17.80;;;8.43;;
9948;SDS011;5013;51.840;8.276;2023-07-02T10:07:29;17.93;;;8.50;;
9948;SDS011;5013;51.840;8.276;2023-07-02T10:09:57;21.37;;;8.90;;
9948;SDS011;5013;51.840;8.276;2023-07-02T10:12:26;17.73;;;8.60;;
9948;SDS011;5013;51.840;8.276;2023-07-02T10:14:56;16.23;;;8.80;;
9948;SDS011;5013;51.840;8.276;2023-07-02T10:17:33;15.00;;;8.50;;
9948;SDS011;5013;51.840;8.276;2023-07-02T10:20:02;16.00;;;8.90;;
9948;SDS011;5013;51.840;8.276;2023-07-02T10:25:29;15.17;;;8.53;;
9948;SDS011;5013;51.840;8.276;2023-07-02T10:27:56;15.73;;;8.80;;
9948;SDS011;5013;51.840;8.276;2023-07-02T10:30:36;14.60;;;8.43;;
9948;SDS011;5013;51.840;8.276;2023-07-02T10:33:07;16.53;;;8.50;;
9948;SDS011;5013;51.840;8.276;2023-07-02T10:35:34;18.03;;;8.80;;
9948;SDS011;5013;51.840;8.276;2023-07-02T10:37:59;17.97;;;8.83;;
9948;SDS011;5013;51.840;8.276;2023-07-02T10:40:25;15.07;;;8.37;;
9948;SDS011;5013;51.840;8.276;2023-07-02T10:42:51;17.47;;;8.70;;
9948;SDS011;5013;51.840;8.276;2023-07-02T10:45:18;14.33;;;8.40;;
9948;SDS011;5013;51.840;8.276;2023-07-02T10:47:44;15.23;;;8.50;;
9948;SDS011;5013;51.840;8.276;2023-07-02T10:50:17;21.17;;;9.27;;
9948;SDS011;5013;51.840;8.276;2023-07-02T10:52:44;13.93;;;8.43;;
9948;SDS011;5013;51.840;8.276;2023-07-02T10:55:15;13.93;;;8.20;;
9948;SDS011;5013;51.840;8.276;2023-07-02T10:57:45;14.73;;;7.27;;
9948;SDS011;5013;51.840;8.276;2023-07-02T11:00:11;12.33;;;7.73;;
9948;SDS011;5013;51.840;8.276;2023-07-02T11:02:37;11.50;;;7.83;;
9948;SDS011;5013;51.840;8.276;2023-07-02T11:05:04;13.13;;;7.70;;
9948;SDS011;5013;51.840;8.276;2023-07-02T11:07:43;16.07;;;8.13;;
9948;SDS011;5013;51.840;8.276;2023-07-02T11:10:09;16.67;;;9.00;;
9948;SDS011;5013;51.840;8.276;2023-07-02T11:12:41;13.07;;;8.00;;
9948;SDS011;5013;51.840;8.276;2023-07-02T11:15:11;17.20;;;8.27;;
9948;SDS011;5013;51.840;8.276;2023-07-02T11:17:40;16.40;;;8.23;;
9948;SDS011;5013;51.840;8.276;2023-07-02T11:20:10;15.00;;;8.00;;
9948;SDS011;5013;51.840;8.276;2023-07-02T11:22:37;16.60;;;8.13;;
9948;SDS011;5013;51.840;8.276;2023-07-02T11:27:35;19.57;;;8.30;;
9948;SDS011;5013;51.840;8.276;2023-07-02T11:30:00;14.07;;;8.33;;
9948;SDS011;5013;51.840;8.276;2023-07-02T11:32:26;15.03;;;7.77;;
9948;SDS011;5013;51.840;8.276;2023-07-02T11:34:55;17.10;;;8.30;;
9948;SDS011;5013;51.840;8.276;2023-07-02T11:37:21;20.13;;;8.53;;
9948;SDS011;5013;51.840;8.276;2023-07-02T11:39:47;14.17;;;8.67;;
9948;SDS011;5013;51.840;8.276;2023-07-02T11:42:12;18.67;;;8.77;;
9948;SDS011;5013;51.840;8.276;2023-07-02T11:44:38;15.37;;;8.03;;
9948;SDS011;5013;51.840;8.276;2023-07-02T11:47:04;13.80;;;9.03;;
9948;SDS011;5013;51.840;8.276;2023-07-02T11:49:30;14.43;;;8.03;;
9948;SDS011;5013;51.840;8.276;2023-07-02T11:51:56;14.47;;;8.20;;
9948;SDS011;5013;51.840;8.276;2023-07-02T11:54:21;15.50;;;8.50;;
9948;SDS011;5013;51.840;8.276;2023-07-02T11:56:47;18.10;;;9.33;;
9948;SDS011;5013;51.840;8.276;2023-07-02T11:59:13;16.43;;;9.03;;
9948;SDS011;5013;51.840;8.276;2023-07-02T12:01:38;13.97;;;8.83;;
9948;SDS011;5013;51.840;8.276;2023-07-02T12:04:04;17.33;;;9.13;;
9948;SDS011;5013;51.840;8.276;2023-07-02T12:06:31;26.77;;;9.30;;
9948;SDS011;5013;51.840;8.276;2023-07-02T12:08:56;14.00;;;8.10;;
9948;SDS011;5013;51.840;8.276;2023-07-02T12:11:22;13.90;;;8.17;;
9948;SDS011;5013;51.840;8.276;2023-07-02T12:13:47;14.23;;;8.80;;
9948;SDS011;5013;51.840;8.276;2023-07-02T12:16:13;15.90;;;7.67;;
9948;SDS011;5013;51.840;8.276;2023-07-02T12:18:38;13.07;;;7.60;;
9948;SDS011;5013;51.840;8.276;2023-07-02T12:21:04;17.97;;;8.27;;
9948;SDS011;5013;51.840;8.276;2023-07-02T12:23:30;11.47;;;7.40;;
9948;SDS011;5013;51.840;8.276;2023-07-02T12:25:55;23.30;;;8.37;;
9948;SDS011;5013;51.840;8.276;2023-07-02T12:28:21;12.67;;;7.63;;
9948;SDS011;5013;51.840;8.276;2023-07-02T12:30:46;17.10;;;8.43;;
9948;SDS011;5013;51.840;8.276;2023-07-02T12:33:12;17.03;;;8.10;;
9948;SDS011;5013;51.840;8.276;2023-07-02T12:35:38;13.83;;;7.90;;
9948;SDS011;5013;51.840;8.276;2023-07-02T12:38:03;14.00;;;7.40;;
9948;SDS011;5013;51.840;8.276;2023-07-02T12:40:29;15.93;;;7.67;;
9948;SDS011;5013;51.840;8.276;2023-07-02T12:42:54;15.17;;;7.17;;
9948;SDS011;5013;51.840;8.276;2023-07-02T12:45:21;12.83;;;7.07;;
9948;SDS011;5013;51.840;8.276;2023-07-02T12:47:47;10.73;;;7.40;;
9948;SDS011;5013;51.840;8.276;2023-07-02T12:50:13;15.57;;;7.80;;
9948;SDS011;5013;51.840;8.276;2023-07-02T12:52:38;10.87;;;6.27;;
9948;SDS011;5013;51.840;8.276;2023-07-02T12:55:04;13.13;;;7.07;;
9948;SDS011;5013;51.840;8.276;2023-07-02T12:57:30;14.30;;;7.20;;
9948;SDS011;5013;51.840;8.276;2023-07-02T12:59:55;15.83;;;7.53;;
9948;SDS011;5013;51.840;8.276;2023-07-02T13:02:22;15.07;;;7.33;;
9948;SDS011;5013;51.840;8.276;2023-07-02T13:04:49;10.43;;;6.40;;
9948;SDS011;5013;51.840;8.276;2023-07-02T13:07:15;15.10;;;7.03;;
9948;SDS011;5013;51.840;8.276;2023-07-02T13:09:41;13.97;;;6.80;;
9948;SDS011;5013;51.840;8.276;2023-07-02T13:12:07;10.87;;;7.10;;
9948;SDS011;5013;51.840;8.276;2023-07-02T13:14:34;18.67;;;7.87;;
9948;SDS011;5013;51.840;8.276;2023-07-02T13:17:00;15.30;;;7.13;;
9948;SDS011;5013;51.840;8.276;2023-07-02T13:19:28;11.13;;;6.23;;
9948;SDS011;5013;51.840;8.276;2023-07-02T13:21:53;12.77;;;6.70;;
9948;SDS011;5013;51.840;8.276;2023-07-02T13:24:19;13.07;;;6.33;;
9948;SDS011;5013;51.840;8.276;2023-07-02T13:26:44;11.10;;;6.53;;
9948;SDS011;5013;51.840;8.276;2023-07-02T13:29:10;8.93;;;6.13;;
9948;SDS011;5013;51.840;8.276;2023-07-02T13:31:35;11.00;;;6.20;;
9948;SDS011;5013;51.840;8.276;2023-07-02T13:34:01;12.27;;;5.88;;
9948;SDS011;5013;51.840;8.276;2023-07-02T13:36:26;8.85;;;6.18;;
9948;SDS011;5013;51.840;8.276;2023-07-02T13:38:53;14.77;;;6.25;;
9948;SDS011;5013;51.840;8.276;2023-07-02T13:41:19;13.18;;;6.53;;
9948;SDS011;5013;51.840;8.276;2023-07-02T13:43:45;11.60;;;6.90;;
9948;SDS011;5013;51.840;8.276;2023-07-02T13:46:10;10.77;;;6.47;;
9948;SDS011;5013;51.840;8.276;2023-07-02T13:48:36;10.83;;;6.33;;
9948;SDS011;5013;51.840;8.276;2023-07-02T13:51:01;7.95;;;5.97;;
9948;SDS011;5013;51.840;8.276;2023-07-02T13:53:27;13.07;;;6.30;;
9948;SDS011;5013;51.840;8.276;2023-07-02T13:55:52;12.20;;;6.47;;
9948;SDS011;5013;51.840;8.276;2023-07-02T13:58:18;9.60;;;6.53;;
9948;SDS011;5013;51.840;8.276;2023-07-02T14:00:44;11.95;;;5.90;;
9948;SDS011;5013;51.840;8.276;2023-07-02T14:03:09;8.33;;;5.97;;
9948;SDS011;5013;51.840;8.276;2023-07-02T14:05:35;13.30;;;6.33;;
9948;SDS011;5013;51.840;8.276;2023-07-02T14:08:00;14.15;;;6.50;;
9948;SDS011;5013;51.840;8.276;2023-07-02T14:10:26;12.85;;;6.50;;
9948;SDS011;5013;51.840;8.276;2023-07-02T14:12:53;13.98;;;6.45;;
9948;SDS011;5013;51.840;8.276;2023-07-02T14:15:19;13.55;;;7.10;;
9948;SDS011;5013;51.840;8.276;2023-07-02T14:17:44;13.33;;;6.93;;
9948;SDS011;5013;51.840;8.276;2023-07-02T14:20:10;12.20;;;6.37;;
9948;SDS011;5013;51.840;8.276;2023-07-02T14:22:36;13.40;;;6.90;;
9948;SDS011;5013;51.840;8.276;2023-07-02T14:25:01;10.80;;;6.63;;
9948;SDS011;5013;51.840;8.276;2023-07-02T14:27:27;11.70;;;6.17;;
9948;SDS011;5013;51.840;8.276;2023-07-02T14:29:53;15.93;;;7.07;;
9948;SDS011;5013;51.840;8.276;2023-07-02T14:32:18;12.60;;;6.90;;
9948;SDS011;5013;51.840;8.276;2023-07-02T14:34:44;14.90;;;7.53;;
9948;SDS011;5013;51.840;8.276;2023-07-02T14:37:10;15.67;;;7.10;;
9948;SDS011;5013;51.840;8.276;2023-07-02T14:39:35;13.93;;;7.37;;
9948;SDS011;5013;51.840;8.276;2023-07-02T14:42:01;13.13;;;6.80;;
9948;SDS011;5013;51.840;8.276;2023-07-02T14:44:27;13.37;;;6.57;;
9948;SDS011;5013;51.840;8.276;2023-07-02T14:46:52;13.47;;;7.20;;
9948;SDS011;5013;51.840;8.276;2023-07-02T14:49:18;13.07;;;7.20;;
9948;SDS011;5013;51.840;8.276;2023-07-02T14:51:45;9.50;;;6.27;;
9948;SDS011;5013;51.840;8.276;2023-07-02T14:54:11;13.03;;;6.87;;
9948;SDS011;5013;51.840;8.276;2023-07-02T14:56:36;13.80;;;6.63;;
9948;SDS011;5013;51.840;8.276;2023-07-02T14:59:02;12.53;;;7.03;;
9948;SDS011;5013;51.840;8.276;2023-07-02T15:01:29;12.50;;;6.83;;
9948;SDS011;5013;51.840;8.276;2023-07-02T15:03:54;10.87;;;6.20;;
9948;SDS011;5013;51.840;8.276;2023-07-02T15:06:20;12.03;;;7.13;;
9948;SDS011;5013;51.840;8.276;2023-07-02T15:08:46;10.37;;;6.33;;